Silver Bay, MN

10:16 PM CST on November 20, 2017 (GMT -0600)
Silver Bay Municipal | | Change Station
Active Advisory: Special Statement

Elev 1089 ft 47.25 °N, 91.42 °W | Updated 14 minutes ago

Mostly Cloudy
Mostly Cloudy
36 °F
Feels Like 29 °F
N
8
Wind Variable Wind from West

Today
High -- | Low -- °F
--% Chance of Precip.
Yesterday
High -- | Low -- °F
Precip. -- in
Pressure 29.20 in
Visibility 10.0 miles
Clouds Clear
Windchill 29 °F
Dew Point 28 °F
Humidity 75%
Rainfall 0.00 in
Snow Depth Not available.
7:17 AM 4:24 PM
Waxing Crescent, 6% visible
METAR KBFW 210402Z AUTO 26007KT 220V310 10SM CLR 02/M02 A2920 RMK AO2
Pressure 29.20 in
Visibility 10.0 miles
Clouds Clear
Windchill 29 °F
Dew Point 28 °F
Humidity 75%
Rainfall 0.00 in
Snow Depth Not available.
7:17 AM 4:24 PM
Waxing Crescent, 6% visible
METAR KBFW 210402Z AUTO 26007KT 220V310 10SM CLR 02/M02 A2920 RMK AO2

Get Your Daily Forecast Email!

Thanks for signing up!

Be on the lookout for a verification email in your inbox.

You'll start receiving severe weather alerts in your inbox..

×

10-Day Weather Forecast

Almanac

Astronomy

Nov. 20, 2017 Rise Set
Actual Time
Civil Twilight
Nautical Twilight
Astronomical Twilight
Moon
Length of Visible Light
Length of Day
Tomorrow will be .
, % of the Moon is Illuminated

Today's Extremes

State Highs State Lows

Community

WunderPhotos

Category 6

Welcome to Category 6. This is the collective home for Weather Underground's featured writeups by Dr. Jeff Masters (right), Bob Henson (left), Chris Burt, and other regular contributors.

Nearby

Air Quality

  Air Quality AQ Index Pollutant
Not available.

Snow Depth

Station Depth Elevation

Earthquake Activity

City Distance Mag. Time & Date
Minimum magnitude displayed is 2.5.

Coastal Water Temperatures

Place Temperature

Stations

Nearby Weather Stations

Station Location Temp. Windchill Dew Point Humidity Wind Precip. Elev Updated Type
                   

Watches & Warnings

Special Statement
Issued: 9:51 PM CST Nov. 20, 2017 – National Weather Service

... Strong winds tonight...

Strong wind gusts of 30 mph to around 45 mph were occurring from
the International Falls area south through the Brainerd lakes.
These strong winds will continue to move east through the Iron
Range into the twin ports and Hinckley areas by midnight, then
continue east overnight. There may be a few stronger gusts as
well. Strong winds will continue through much of the night into
Tuesday.


Melde

951 PM CST Mon Nov 20 2017

... Strong winds tonight...

Strong wind gusts of 30 mph to around 45 mph were occurring from
the International Falls area south through the Brainerd lakes.
These strong winds will continue to move east through the Iron
Range into the twin ports and Hinckley areas by midnight, then
continue east overnight. There may be a few stronger gusts as
well. Strong winds will continue through much of the night into
Tuesday.


Melde